Time;durP1;ratioP1;P1;durP2;ratioP2;P2;SDS_P1;SDS_P2;PMS_P1;PMS_P2;Temp;Humidity;BMP_temperature;BMP_pressure;BME280_temperature;BME280_humidity;BME280_pressure;Samples;Min_cycle;Max_cycle;Signal;HPM_P1;HPM_P2
2023/10/25 00:01:18;;;;;;;10.73;3.55;;;9.90;99.90;;;;;;4873304;29;20075;-80
2023/10/25 00:03:44;;;;;;;9.00;3.55;;;9.80;99.90;;;;;;4876736;29;20040;-81
2023/10/25 00:06:09;;;;;;;8.27;3.63;;;9.80;99.90;;;;;;4859326;29;20132;-81
2023/10/25 00:08:35;;;;;;;9.52;3.95;;;9.80;99.90;;;;;;4865020;29;20064;-81
2023/10/25 00:11:05;;;;;;;8.82;3.50;;;9.80;99.90;;;;;;4874696;29;20400;-81
2023/10/25 00:13:31;;;;;;;7.70;3.30;;;9.70;99.90;;;;;;4877710;29;20064;-80
2023/10/25 00:15:57;;;;;;;8.60;3.60;;;9.70;99.90;;;;;;4876468;29;20051;-80
2023/10/25 00:18:24;;;;;;;8.55;3.20;;;9.70;99.90;;;;;;4882445;29;20049;-80
2023/10/25 00:20:50;;;;;;;8.25;3.15;;;9.70;99.90;;;;;;4877744;29;20052;-80
2023/10/25 00:23:18;;;;;;;9.40;3.85;;;9.70;99.90;;;;;;4876648;29;20402;-80
2023/10/25 00:25:43;;;;;;;9.75;3.38;;;9.70;99.90;;;;;;4877500;29;20467;-80
2023/10/25 00:28:09;;;;;;;9.35;3.70;;;9.70;99.90;;;;;;4893670;29;20056;-80
2023/10/25 00:30:35;;;;;;;10.45;3.75;;;9.70;99.90;;;;;;4872251;29;20044;-81
2023/10/25 00:33:01;;;;;;;9.77;4.03;;;9.70;99.90;;;;;;4872426;29;20085;-80
2023/10/25 00:35:26;;;;;;;9.98;3.38;;;9.70;99.90;;;;;;4877619;29;20037;-80
2023/10/25 00:37:52;;;;;;;8.98;3.50;;;9.70;99.90;;;;;;4875111;29;20051;-81
2023/10/25 00:40:18;;;;;;;7.95;3.28;;;9.70;99.90;;;;;;4846614;29;20052;-80
2023/10/25 00:42:43;;;;;;;7.18;3.30;;;9.60;99.90;;;;;;4878841;29;20495;-80
2023/10/25 00:45:09;;;;;;;9.10;3.60;;;9.60;99.90;;;;;;4877379;29;20044;-80
2023/10/25 00:47:35;;;;;;;10.00;3.63;;;9.70;99.90;;;;;;4876990;29;20612;-80
2023/10/25 00:50:02;;;;;;;9.15;3.83;;;9.60;99.90;;;;;;4859486;29;20043;-81
2023/10/25 00:52:28;;;;;;;8.88;3.35;;;9.60;99.90;;;;;;4863065;29;20045;-81
2023/10/25 00:54:54;;;;;;;7.78;3.30;;;9.60;99.90;;;;;;4872111;29;20047;-81
2023/10/25 00:57:20;;;;;;;7.70;3.03;;;9.60;99.90;;;;;;4873699;29;20120;-80
2023/10/25 00:59:46;;;;;;;8.57;3.75;;;9.50;99.90;;;;;;4897737;29;20048;-81
2023/10/25 01:02:13;;;;;;;8.40;3.33;;;9.50;99.90;;;;;;4846095;29;20061;-81
2023/10/25 01:04:39;;;;;;;8.85;3.60;;;9.50;99.90;;;;;;4860104;29;20554;-80
2023/10/25 01:07:05;;;;;;;8.32;3.10;;;9.50;99.90;;;;;;4860465;29;20483;-81
2023/10/25 01:09:31;;;;;;;8.32;3.28;;;9.50;99.90;;;;;;4882215;29;20052;-80
2023/10/25 01:11:58;;;;;;;9.18;3.60;;;9.50;99.90;;;;;;4868933;29;20048;-80
2023/10/25 01:14:27;;;;;;;7.97;3.15;;;9.40;99.90;;;;;;4869293;29;20045;-80
2023/10/25 01:16:53;;;;;;;7.85;3.47;;;9.40;99.90;;;;;;4863827;29;20064;-80
2023/10/25 01:19:19;;;;;;;11.38;3.40;;;9.40;99.90;;;;;;4858999;29;20063;-81
2023/10/25 01:21:44;;;;;;;9.10;3.50;;;9.40;99.90;;;;;;4875226;29;20048;-81
2023/10/25 01:24:10;;;;;;;8.65;3.60;;;9.40;99.90;;;;;;4861585;29;20056;-80
2023/10/25 01:26:37;;;;;;;8.88;3.15;;;9.40;99.90;;;;;;4877221;29;20475;-81
2023/10/25 01:29:03;;;;;;;8.93;3.72;;;9.40;99.90;;;;;;4876995;29;20711;-80
2023/10/25 01:31:29;;;;;;;8.70;3.45;;;9.40;99.90;;;;;;4875663;29;20040;-80
2023/10/25 01:33:55;;;;;;;7.95;3.30;;;9.30;99.90;;;;;;4877094;29;20384;-81
2023/10/25 01:36:21;;;;;;;8.95;3.45;;;9.30;99.90;;;;;;4882778;29;20041;-81
2023/10/25 01:38:46;;;;;;;8.18;3.50;;;9.30;99.90;;;;;;4846860;29;20056;-81
2023/10/25 01:41:16;;;;;;;7.55;3.47;;;9.30;99.90;;;;;;4861665;29;20044;-81
2023/10/25 01:43:44;;;;;;;7.47;3.00;;;9.30;99.90;;;;;;4877354;29;20376;-81
2023/10/25 01:46:10;;;;;;;7.72;3.15;;;9.30;99.90;;;;;;4887591;29;20037;-80
2023/10/25 01:48:37;;;;;;;9.00;3.45;;;9.30;99.90;;;;;;4880613;29;20547;-81
2023/10/25 01:51:06;;;;;;;7.70;3.22;;;9.20;99.90;;;;;;4882573;29;20037;-80
2023/10/25 01:53:33;;;;;;;8.57;3.35;;;9.20;99.90;;;;;;4875162;29;20111;-81
2023/10/25 01:55:59;;;;;;;9.93;3.58;;;9.20;99.90;;;;;;4878944;29;20060;-81
2023/10/25 01:58:25;;;;;;;8.70;3.38;;;9.20;99.90;;;;;;4877674;29;20041;-81
2023/10/25 02:00:51;;;;;;;8.25;3.40;;;9.10;99.90;;;;;;4882295;29;20112;-81
2023/10/25 02:03:17;;;;;;;7.43;3.33;;;9.10;99.90;;;;;;4879049;29;20514;-81
2023/10/25 02:05:43;;;;;;;8.52;3.33;;;9.10;99.90;;;;;;4880771;29;20040;-81
2023/10/25 02:08:09;;;;;;;9.40;3.42;;;9.10;99.90;;;;;;4876995;29;20044;-81
2023/10/25 02:10:35;;;;;;;11.65;3.40;;;9.10;99.90;;;;;;4875806;29;20126;-81
2023/10/25 02:13:00;;;;;;;8.68;3.40;;;9.10;99.90;;;;;;4879800;29;20457;-81
2023/10/25 02:15:27;;;;;;;8.80;3.13;;;9.10;99.90;;;;;;4876112;29;20127;-81
2023/10/25 02:17:53;;;;;;;9.38;3.42;;;9.10;99.90;;;;;;4876382;29;20048;-81
2023/10/25 02:20:19;;;;;;;7.95;3.40;;;9.00;99.90;;;;;;4844437;29;20052;-81
2023/10/25 02:22:44;;;;;;;8.05;3.10;;;9.00;99.90;;;;;;4893397;29;20128;-81
2023/10/25 02:25:10;;;;;;;8.45;3.17;;;9.00;99.90;;;;;;4861537;29;20045;-81
2023/10/25 02:27:36;;;;;;;8.98;3.40;;;9.00;99.90;;;;;;4883519;29;20392;-81
2023/10/25 02:30:02;;;;;;;9.18;3.80;;;9.00;99.90;;;;;;4875174;29;20139;-81
2023/10/25 02:32:28;;;;;;;9.68;3.60;;;9.00;99.90;;;;;;4861383;29;20055;-81
2023/10/25 02:34:54;;;;;;;8.35;3.50;;;9.00;99.90;;;;;;4873211;29;20048;-81
2023/10/25 02:37:19;;;;;;;9.50;3.60;;;9.00;99.90;;;;;;4858465;29;20180;-80
2023/10/25 02:39:45;;;;;;;10.45;3.50;;;8.90;99.90;;;;;;4870603;29;20456;-81
2023/10/25 02:42:12;;;;;;;9.40;3.60;;;8.90;99.90;;;;;;4861191;29;20093;-81
2023/10/25 02:44:38;;;;;;;8.98;3.92;;;8.90;99.90;;;;;;4843557;29;20044;-81
2023/10/25 02:47:05;;;;;;;8.90;3.40;;;8.90;99.90;;;;;;4894784;29;20120;-81
2023/10/25 02:49:33;;;;;;;9.23;3.47;;;8.80;99.90;;;;;;4875567;29;20076;-80
2023/10/25 02:51:59;;;;;;;10.00;3.60;;;8.80;99.90;;;;;;4844954;29;20049;-81
2023/10/25 02:54:25;;;;;;;9.10;3.50;;;8.80;99.90;;;;;;4865804;29;20055;-81
2023/10/25 02:56:50;;;;;;;8.10;3.58;;;8.80;99.90;;;;;;4876638;29;20041;-81
2023/10/25 02:59:16;;;;;;;10.27;3.75;;;8.80;99.90;;;;;;4864980;29;20052;-81
2023/10/25 03:01:42;;;;;;;9.40;3.95;;;8.80;99.90;;;;;;4865554;29;20040;-81
2023/10/25 03:04:08;;;;;;;8.95;3.70;;;8.80;99.90;;;;;;4863485;29;20068;-81
2023/10/25 03:06:34;;;;;;;9.00;3.88;;;8.80;99.90;;;;;;4889001;29;20162;-81
2023/10/25 03:08:59;;;;;;;9.65;3.60;;;8.80;99.90;;;;;;4863478;29;20044;-81
2023/10/25 03:11:25;;;;;;;8.63;3.80;;;8.80;99.90;;;;;;4894925;29;20139;-81
2023/10/25 03:13:51;;;;;;;8.20;3.90;;;8.80;99.90;;;;;;4864721;29;20056;-80
2023/10/25 03:16:17;;;;;;;9.38;4.03;;;8.80;99.90;;;;;;4876682;29;20071;-81
2023/10/25 03:18:42;;;;;;;8.23;4.00;;;8.80;99.90;;;;;;4876391;29;20093;-82
2023/10/25 03:21:08;;;;;;;8.68;4.15;;;8.80;99.90;;;;;;4876978;29;20044;-81
2023/10/25 03:23:34;;;;;;;9.68;4.18;;;8.80;99.90;;;;;;4862373;29;20041;-81
2023/10/25 03:26:07;;;;;;;11.23;4.25;;;8.80;99.90;;;;;;4836754;29;20583;-81
2023/10/25 03:28:33;;;;;;;10.35;4.70;;;8.80;99.90;;;;;;4884262;29;20182;-81
2023/10/25 03:31:07;;;;;;;9.43;4.15;;;8.90;99.90;;;;;;4856755;29;20049;-81
2023/10/25 03:33:33;;;;;;;9.68;4.28;;;8.80;99.90;;;;;;4868088;29;20055;-81
2023/10/25 03:35:59;;;;;;;9.55;4.30;;;8.80;99.90;;;;;;4875762;29;20119;-81
2023/10/25 03:38:24;;;;;;;10.45;4.40;;;8.70;99.90;;;;;;4849126;29;20123;-81
2023/10/25 03:41:00;;;;;;;11.48;5.22;;;8.80;99.90;;;;;;4864699;29;20150;-81
2023/10/25 03:43:26;;;;;;;10.35;4.20;;;8.80;99.90;;;;;;4879668;29;20403;-81
2023/10/25 03:45:51;;;;;;;10.30;4.47;;;8.80;99.90;;;;;;4877961;29;20069;-81
2023/10/25 03:48:17;;;;;;;10.07;4.70;;;8.70;99.90;;;;;;4858348;29;20116;-81
2023/10/25 03:50:43;;;;;;;9.88;4.43;;;8.70;99.90;;;;;;4829015;29;20828;-81
2023/10/25 03:53:09;;;;;;;9.85;4.60;;;8.70;99.90;;;;;;4886666;29;20037;-81
2023/10/25 03:55:34;;;;;;;9.32;4.60;;;8.70;99.90;;;;;;4878130;29;20105;-81
2023/10/25 03:58:00;;;;;;;9.15;4.32;;;8.70;99.90;;;;;;4877155;29;20411;-81
2023/10/25 04:00:26;;;;;;;10.52;5.03;;;8.70;99.90;;;;;;4843224;29;20049;-81
2023/10/25 04:02:52;;;;;;;9.73;4.57;;;8.70;99.90;;;;;;4883937;29;20456;-81
2023/10/25 04:05:18;;;;;;;10.82;5.15;;;8.70;99.90;;;;;;4878875;29;20040;-81
2023/10/25 04:07:44;;;;;;;9.80;4.82;;;8.70;99.90;;;;;;4862224;29;20108;-81
2023/10/25 04:10:09;;;;;;;9.38;4.40;;;8.70;99.90;;;;;;4877747;29;20143;-80
2023/10/25 04:12:35;;;;;;;10.57;4.97;;;8.70;99.90;;;;;;4878585;29;20032;-80
2023/10/25 04:15:01;;;;;;;10.55;5.15;;;8.60;99.90;;;;;;4876847;29;20559;-81
2023/10/25 04:17:26;;;;;;;12.77;4.40;;;8.60;99.90;;;;;;4863258;29;20048;-81
2023/10/25 04:19:52;;;;;;;9.10;4.43;;;8.60;99.90;;;;;;4863944;29;20041;-81
2023/10/25 04:22:19;;;;;;;10.18;4.22;;;8.60;99.90;;;;;;4873268;29;20395;-80
2023/10/25 04:24:44;;;;;;;10.25;4.50;;;8.70;99.90;;;;;;4878500;29;20083;-81
2023/10/25 04:27:10;;;;;;;10.88;4.50;;;8.60;99.90;;;;;;4864570;29;20119;-81
2023/10/25 04:29:36;;;;;;;9.77;4.25;;;8.60;99.90;;;;;;4893584;29;20044;-81
2023/10/25 04:32:02;;;;;;;9.10;4.25;;;8.60;99.90;;;;;;4874825;29;20250;-81
2023/10/25 04:34:28;;;;;;;8.68;4.07;;;8.60;99.90;;;;;;4867949;29;20044;-81
2023/10/25 04:36:55;;;;;;;8.43;3.85;;;8.60;99.90;;;;;;4858419;29;20041;-81
2023/10/25 04:39:20;;;;;;;8.80;4.05;;;8.60;99.90;;;;;;4860922;29;20048;-81
2023/10/25 04:41:46;;;;;;;12.50;4.20;;;8.60;99.90;;;;;;4887301;29;20056;-81
2023/10/25 04:44:13;;;;;;;10.40;4.25;;;8.60;99.90;;;;;;4878632;29;20064;-81
2023/10/25 04:46:38;;;;;;;8.70;4.00;;;8.60;99.90;;;;;;4874284;29;20041;-81
2023/10/25 04:49:04;;;;;;;16.25;4.28;;;8.60;99.90;;;;;;4863190;29;20132;-81
2023/10/25 04:51:30;;;;;;;10.35;4.25;;;8.60;99.90;;;;;;4870179;29;20451;-81
2023/10/25 04:53:56;;;;;;;9.85;4.05;;;8.60;99.90;;;;;;4875415;29;20044;-81
2023/10/25 04:56:23;;;;;;;9.43;4.57;;;8.60;99.90;;;;;;4879245;29;20083;-82
2023/10/25 04:58:49;;;;;;;10.43;4.10;;;8.50;99.90;;;;;;4884089;29;20056;-81
2023/10/25 05:01:15;;;;;;;8.48;3.80;;;8.50;99.90;;;;;;4869103;29;20048;-82
2023/10/25 05:03:43;;;;;;;9.45;4.25;;;8.50;99.90;;;;;;4885968;29;20582;-81
2023/10/25 05:06:09;;;;;;;8.65;3.70;;;8.50;99.90;;;;;;4876289;29;20073;-82
2023/10/25 05:08:35;;;;;;;9.32;4.15;;;8.50;99.90;;;;;;4894568;29;20248;-81
2023/10/25 05:11:06;;;;;;;9.45;4.20;;;8.50;99.90;;;;;;4873994;29;20090;-81
2023/10/25 05:13:32;;;;;;;9.18;4.10;;;8.50;99.90;;;;;;4891047;29;20036;-81
2023/10/25 05:15:59;;;;;;;8.57;3.90;;;8.50;99.90;;;;;;4905333;29;20040;-81
2023/10/25 05:18:26;;;;;;;9.40;4.00;;;8.50;99.90;;;;;;4903720;29;20092;-80
2023/10/25 05:20:58;;;;;;;8.35;3.60;;;8.40;99.90;;;;;;4887612;29;20243;-82
2023/10/25 05:23:32;;;;;;;11.48;4.22;;;8.40;99.90;;;;;;4881149;29;20392;-82
2023/10/25 05:26:00;;;;;;;8.80;4.30;;;8.40;99.90;;;;;;4880903;29;20056;-82
2023/10/25 05:28:26;;;;;;;9.65;4.50;;;8.40;99.90;;;;;;4891909;29;20061;-82
2023/10/25 05:30:55;;;;;;;11.68;4.20;;;8.40;99.90;;;;;;4872827;29;20036;-81
2023/10/25 05:33:24;;;;;;;8.18;3.75;;;8.40;99.90;;;;;;4858561;29;20053;-82
2023/10/25 05:35:50;;;;;;;8.02;3.55;;;8.40;99.90;;;;;;4866705;29;20052;-82
2023/10/25 05:38:16;;;;;;;9.35;4.25;;;8.30;99.90;;;;;;4890395;29;20068;-82
2023/10/25 05:40:44;;;;;;;9.23;3.70;;;8.30;99.90;;;;;;4890417;29;20044;-81
2023/10/25 05:43:15;;;;;;;9.10;3.63;;;8.30;99.90;;;;;;4889273;29;20057;-82
2023/10/25 05:45:42;;;;;;;8.57;3.88;;;8.30;99.90;;;;;;4889722;29;20099;-82
2023/10/25 05:48:11;;;;;;;9.73;3.70;;;8.50;99.90;;;;;;4871654;29;20056;-82
2023/10/25 05:50:38;;;;;;;8.35;3.80;;;8.20;99.90;;;;;;4875135;29;20056;-81
2023/10/25 05:53:03;;;;;;;9.32;3.85;;;8.20;99.90;;;;;;4884204;29;20025;-82
2023/10/25 05:55:29;;;;;;;9.32;4.10;;;8.20;99.90;;;;;;4890494;29;20278;-82
2023/10/25 05:57:55;;;;;;;9.90;4.57;;;8.20;99.90;;;;;;4906641;29;20040;-82
2023/10/25 06:00:22;;;;;;;8.50;3.83;;;8.20;99.90;;;;;;4903873;29;20366;-82
2023/10/25 06:02:49;;;;;;;8.77;3.55;;;8.20;99.90;;;;;;4905282;29;20329;-82
2023/10/25 06:05:17;;;;;;;7.80;3.30;;;8.10;99.90;;;;;;4885921;29;20084;-82
2023/10/25 06:07:43;;;;;;;8.13;3.47;;;8.10;99.90;;;;;;4902843;29;20053;-82
2023/10/25 06:10:10;;;;;;;9.82;4.10;;;8.10;99.90;;;;;;4890145;29;20050;-82
2023/10/25 06:12:36;;;;;;;7.95;3.70;;;8.10;99.90;;;;;;4870806;29;20061;-81
2023/10/25 06:15:04;;;;;;;10.35;4.00;;;8.10;99.90;;;;;;4855985;29;20104;-80
2023/10/25 06:17:30;;;;;;;8.25;3.50;;;8.00;99.90;;;;;;4858652;29;20044;-81
2023/10/25 06:19:55;;;;;;;9.13;4.03;;;8.00;99.90;;;;;;4896077;29;20072;-81
2023/10/25 06:22:21;;;;;;;9.05;3.80;;;8.00;99.90;;;;;;4884473;29;20143;-81
2023/10/25 06:24:47;;;;;;;8.65;3.60;;;7.90;99.90;;;;;;4869490;29;20056;-80
2023/10/25 06:27:14;;;;;;;10.25;3.80;;;7.90;99.90;;;;;;4864135;29;20103;-81
2023/10/25 06:29:40;;;;;;;9.07;3.50;;;7.90;99.90;;;;;;4888256;29;20486;-80
2023/10/25 06:32:05;;;;;;;8.73;3.60;;;7.90;99.90;;;;;;4864700;29;20228;-80
2023/10/25 06:34:31;;;;;;;9.40;3.90;;;7.90;99.90;;;;;;4858926;29;20047;-80
2023/10/25 06:36:57;;;;;;;10.07;3.45;;;7.80;99.90;;;;;;4889748;29;20032;-80
2023/10/25 06:39:23;;;;;;;7.60;3.35;;;7.80;99.90;;;;;;4872552;29;20055;-81
2023/10/25 06:41:49;;;;;;;7.93;3.17;;;7.80;99.90;;;;;;4879538;29;20288;-80
2023/10/25 06:44:15;;;;;;;9.10;3.47;;;7.80;99.90;;;;;;4887739;29;20036;-81
2023/10/25 06:46:42;;;;;;;9.65;3.42;;;7.90;99.90;;;;;;4887018;29;20036;-81
2023/10/25 06:49:08;;;;;;;8.90;3.50;;;7.90;99.90;;;;;;4901538;29;20092;-80
2023/10/25 06:51:35;;;;;;;7.40;3.22;;;7.90;99.90;;;;;;4889987;29;20186;-80
2023/10/25 06:54:01;;;;;;;9.63;3.63;;;7.90;99.90;;;;;;4905100;29;20333;-80
2023/10/25 06:56:29;;;;;;;8.35;3.42;;;7.90;99.90;;;;;;4887696;29;20025;-81
2023/10/25 06:58:55;;;;;;;7.80;3.65;;;7.90;99.90;;;;;;4889319;29;20129;-80
2023/10/25 07:01:25;;;;;;;8.85;3.30;;;7.90;99.90;;;;;;4887741;29;20040;-80
2023/10/25 07:03:52;;;;;;;8.35;3.47;;;7.90;99.90;;;;;;4889745;29;20057;-81
2023/10/25 07:06:18;;;;;;;7.85;3.22;;;8.30;99.90;;;;;;4902032;29;20039;-80
2023/10/25 07:08:45;;;;;;;10.68;3.67;;;7.90;99.90;;;;;;4889209;29;20267;-80
2023/10/25 07:11:11;;;;;;;7.90;3.47;;;8.00;99.90;;;;;;4905136;29;20052;-81
2023/10/25 07:13:37;;;;;;;8.50;3.22;;;8.00;99.90;;;;;;4879173;29;20040;-80
2023/10/25 07:16:03;;;;;;;7.90;3.45;;;8.10;99.90;;;;;;4859937;29;20055;-81
2023/10/25 07:18:29;;;;;;;8.30;3.80;;;8.10;99.90;;;;;;4884889;29;20152;-80
2023/10/25 07:20:55;;;;;;;9.07;3.90;;;8.10;99.90;;;;;;4899907;29;20111;-80
2023/10/25 07:23:20;;;;;;;8.95;3.80;;;8.20;99.90;;;;;;4887392;29;20048;-80
2023/10/25 07:25:46;;;;;;;8.23;3.22;;;8.20;99.90;;;;;;4858083;29;20135;-80
2023/10/25 07:28:12;;;;;;;7.80;3.60;;;8.30;99.90;;;;;;4871390;29;20045;-80
2023/10/25 07:30:38;;;;;;;8.18;3.35;;;8.30;99.90;;;;;;4855899;29;20071;-81
2023/10/25 07:33:04;;;;;;;8.65;3.58;;;8.30;99.90;;;;;;4889151;29;20043;-81
2023/10/25 07:35:29;;;;;;;10.75;3.70;;;8.30;99.90;;;;;;4887225;29;20032;-80
2023/10/25 07:37:55;;;;;;;7.53;3.47;;;8.20;99.90;;;;;;4882930;29;20081;-81
2023/10/25 07:40:21;;;;;;;9.32;3.38;;;8.20;99.90;;;;;;4876355;29;20232;-80
2023/10/25 07:42:46;;;;;;;8.85;3.53;;;8.20;99.90;;;;;;4885989;29;20112;-80
2023/10/25 07:45:13;;;;;;;10.57;3.85;;;8.30;99.90;;;;;;4901980;29;20119;-80
2023/10/25 07:47:40;;;;;;;8.57;3.80;;;8.30;99.90;;;;;;4904740;29;20347;-81
2023/10/25 07:50:06;;;;;;;9.95;3.60;;;8.30;99.90;;;;;;4872870;29;20249;-81
2023/10/25 07:52:33;;;;;;;8.20;3.50;;;8.30;99.90;;;;;;4868783;29;20292;-80
2023/10/25 07:54:59;;;;;;;9.80;3.60;;;8.40;99.90;;;;;;4885122;29;20055;-80
2023/10/25 07:57:29;;;;;;;9.35;3.72;;;8.40;99.90;;;;;;4889381;29;20024;-81
2023/10/25 07:59:55;;;;;;;7.80;3.45;;;8.50;99.90;;;;;;4888015;29;20335;-81
2023/10/25 08:02:20;;;;;;;8.65;3.30;;;8.50;99.90;;;;;;4887355;29;20028;-81
2023/10/25 08:04:46;;;;;;;7.63;3.45;;;8.50;99.90;;;;;;4884769;29;20086;-81
2023/10/25 08:07:12;;;;;;;9.85;3.50;;;8.60;99.90;;;;;;4872479;29;20144;-81
2023/10/25 08:09:40;;;;;;;9.60;3.50;;;8.70;99.90;;;;;;4904544;29;20076;-81
2023/10/25 08:12:06;;;;;;;9.90;3.72;;;8.70;99.90;;;;;;4868880;29;20032;-81
2023/10/25 08:14:32;;;;;;;9.27;3.35;;;8.70;99.90;;;;;;4873557;29;20092;-81
2023/10/25 08:16:57;;;;;;;9.75;4.18;;;8.70;99.90;;;;;;4885605;29;20111;-80
2023/10/25 08:19:23;;;;;;;7.88;3.33;;;8.80;99.90;;;;;;4885365;29;20051;-81
2023/10/25 08:21:49;;;;;;;8.75;3.40;;;8.80;99.90;;;;;;4842472;29;20112;-81
2023/10/25 08:24:14;;;;;;;10.88;3.45;;;8.80;99.90;;;;;;4871844;29;20152;-81
2023/10/25 08:26:40;;;;;;;9.07;3.60;;;8.80;99.90;;;;;;4888036;29;20235;-81
2023/10/25 08:29:07;;;;;;;7.60;3.53;;;8.90;99.90;;;;;;4872661;29;20305;-81
2023/10/25 08:31:34;;;;;;;8.63;3.22;;;8.90;99.90;;;;;;4856519;29;20057;-80
2023/10/25 08:34:00;;;;;;;8.02;3.67;;;8.90;99.90;;;;;;4885794;29;20033;-81
2023/10/25 08:36:28;;;;;;;8.27;3.22;;;8.90;99.90;;;;;;4886752;29;20234;-81
2023/10/25 08:38:55;;;;;;;9.30;3.67;;;9.00;99.90;;;;;;4887751;29;20048;-80
2023/10/25 08:41:24;;;;;;;7.75;3.42;;;9.10;99.90;;;;;;4886523;29;20166;-80
2023/10/25 08:43:52;;;;;;;9.82;3.78;;;9.10;99.90;;;;;;4901375;29;20041;-80
2023/10/25 08:46:19;;;;;;;7.82;3.67;;;9.10;99.90;;;;;;4872337;29;20048;-81
2023/10/25 08:48:45;;;;;;;8.18;3.58;;;9.20;99.90;;;;;;4887275;29;20056;-81
2023/10/25 08:51:13;;;;;;;7.63;3.13;;;9.30;99.90;;;;;;4902499;29;20064;-81
2023/10/25 08:53:41;;;;;;;11.48;3.70;;;9.30;99.90;;;;;;4899816;29;20036;-80
2023/10/25 08:56:07;;;;;;;7.53;3.25;;;9.30;99.90;;;;;;4886243;29;20060;-81
2023/10/25 08:58:33;;;;;;;8.70;3.55;;;9.40;99.90;;;;;;4886076;29;20065;-81
2023/10/25 09:00:59;;;;;;;9.73;3.63;;;9.40;99.90;;;;;;4868650;29;20029;-81
2023/10/25 09:03:31;;;;;;;8.85;3.65;;;9.50;99.90;;;;;;4873559;29;20033;-80
2023/10/25 09:06:02;;;;;;;9.70;3.60;;;9.50;99.90;;;;;;4884628;29;20044;-80
2023/10/25 09:08:28;;;;;;;9.27;3.92;;;9.60;99.90;;;;;;4886618;29;20032;-81
2023/10/25 09:11:01;;;;;;;8.82;3.67;;;9.60;99.90;;;;;;4902158;29;20395;-81
2023/10/25 09:13:27;;;;;;;8.75;3.65;;;9.70;99.90;;;;;;4902753;29;20084;-80
2023/10/25 09:16:04;;;;;;;8.60;3.53;;;9.70;99.90;;;;;;4900600;29;20182;-81
2023/10/25 09:18:32;;;;;;;10.20;3.85;;;9.70;99.90;;;;;;4882789;29;20039;-81
2023/10/25 09:20:58;;;;;;;9.35;3.85;;;9.70;99.90;;;;;;4885306;29;20064;-80
2023/10/25 09:23:24;;;;;;;10.43;3.80;;;9.80;99.90;;;;;;4884078;29;20068;-81
2023/10/25 09:25:50;;;;;;;7.72;3.33;;;9.80;99.90;;;;;;4886471;29;20056;-81
2023/10/25 09:28:27;;;;;;;9.35;3.78;;;9.80;99.90;;;;;;4879416;29;20049;-80
2023/10/25 09:31:02;;;;;;;9.65;4.20;;;9.80;99.90;;;;;;4885614;29;20085;-81
2023/10/25 09:33:28;;;;;;;10.25;3.92;;;9.90;99.90;;;;;;4887024;29;20107;-80
2023/10/25 09:35:55;;;;;;;9.18;3.67;;;9.90;99.90;;;;;;4878373;29;20044;-81
2023/10/25 09:38:21;;;;;;;9.55;4.03;;;9.90;99.90;;;;;;4884613;29;20282;-80
2023/10/25 09:40:48;;;;;;;9.10;3.95;;;10.00;99.90;;;;;;4900506;29;20147;-81
2023/10/25 09:43:24;;;;;;;11.13;4.60;;;10.00;99.90;;;;;;4874727;29;20122;-80
2023/10/25 09:45:54;;;;;;;9.30;4.18;;;10.00;99.90;;;;;;4879359;29;20036;-81
2023/10/25 09:48:20;;;;;;;10.77;3.80;;;10.10;99.90;;;;;;4887152;29;20120;-81
2023/10/25 09:51:12;;;;;;;9.07;4.10;;;10.10;99.90;;;;;;4882007;29;20216;-81
2023/10/25 09:53:52;;;;;;;9.13;4.30;;;10.20;99.90;;;;;;4901112;29;20129;-81
2023/10/25 09:56:18;;;;;;;10.43;4.30;;;10.20;99.90;;;;;;4871382;29;20107;-81
2023/10/25 09:58:46;;;;;;;9.20;4.25;;;10.30;99.90;;;;;;4902573;29;20040;-81
2023/10/25 10:01:11;;;;;;;11.05;4.47;;;10.30;99.90;;;;;;4891454;29;20084;-80
2023/10/25 10:03:47;;;;;;;10.98;4.93;;;10.40;99.90;;;;;;4884017;29;20052;-81
2023/10/25 10:06:29;;;;;;;9.35;4.15;;;10.50;99.90;;;;;;4881600;29;20032;-81
2023/10/25 10:09:06;;;;;;;9.75;4.32;;;10.60;99.90;;;;;;4870475;29;20189;-81
2023/10/25 10:11:38;;;;;;;9.75;4.80;;;10.60;99.90;;;;;;4883316;29;20373;-80
2023/10/25 10:14:27;;;;;;;9.10;4.33;;;10.80;99.90;;;;;;4886731;29;20040;-80
2023/10/25 10:17:07;;;;;;;9.68;4.20;;;10.80;99.90;;;;;;4886082;29;20270;-80
2023/10/25 10:19:37;;;;;;;8.88;4.28;;;11.00;99.90;;;;;;4871706;29;20060;-80
2023/10/25 10:22:07;;;;;;;9.80;4.30;;;11.10;99.90;;;;;;4901437;29;20048;-80
2023/10/25 10:24:41;;;;;;;9.80;4.18;;;11.20;99.90;;;;;;4902337;29;20320;-81
2023/10/25 10:27:09;;;;;;;10.13;4.40;;;11.30;99.90;;;;;;4902317;29;20083;-80
2023/10/25 10:29:34;;;;;;;9.77;4.55;;;11.50;99.90;;;;;;4883788;29;20190;-80
2023/10/25 10:32:03;;;;;;;9.65;4.70;;;11.60;99.90;;;;;;4886459;29;20040;-80
2023/10/25 10:34:54;;;;;;;10.07;4.15;;;11.70;99.90;;;;;;4899675;29;20039;-81
2023/10/25 10:37:26;;;;;;;10.55;4.38;;;11.90;99.90;;;;;;4883245;29;20048;-81
2023/10/25 10:39:58;;;;;;;9.48;4.30;;;12.00;99.90;;;;;;4884002;29;20485;-80
2023/10/25 10:42:33;;;;;;;10.30;4.60;;;12.10;99.90;;;;;;4898346;29;20056;-82
2023/10/25 10:45:01;;;;;;;8.93;3.58;;;12.20;99.90;;;;;;4880990;29;20060;-81
2023/10/25 10:47:43;;;;;;;9.48;4.18;;;12.30;99.90;;;;;;4867554;29;20027;-81
2023/10/25 10:50:14;;;;;;;9.43;3.92;;;12.40;99.90;;;;;;4850500;29;20191;-81
2023/10/25 10:52:42;;;;;;;8.63;3.88;;;12.40;99.90;;;;;;4887210;29;20036;-81
2023/10/25 10:55:09;;;;;;;9.63;4.13;;;12.50;99.90;;;;;;4864331;29;20276;-81
2023/10/25 10:57:36;;;;;;;9.43;3.70;;;12.50;99.90;;;;;;4881167;29;20079;-82
2023/10/25 11:00:04;;;;;;;8.73;3.33;;;12.60;99.90;;;;;;4867889;29;20306;-82
2023/10/25 11:02:30;;;;;;;9.88;3.58;;;12.60;99.90;;;;;;4866775;29;20041;-81
2023/10/25 11:04:56;;;;;;;8.38;3.40;;;12.70;99.90;;;;;;4882602;29;20194;-81
2023/10/25 11:07:21;;;;;;;9.32;3.50;;;12.70;99.90;;;;;;4871246;29;20028;-81
2023/10/25 11:09:47;;;;;;;9.57;3.83;;;12.80;99.90;;;;;;4883777;29;20050;-81
2023/10/25 11:12:16;;;;;;;9.60;3.60;;;12.80;99.90;;;;;;4885775;29;20083;-81
2023/10/25 11:14:47;;;;;;;7.63;3.42;;;12.80;99.90;;;;;;4900673;29;20072;-81
2023/10/25 11:17:13;;;;;;;8.95;3.53;;;12.80;99.90;;;;;;4884480;29;20053;-82
2023/10/25 11:19:40;;;;;;;7.88;3.30;;;12.90;99.90;;;;;;4872884;29;20391;-81
2023/10/25 11:22:06;;;;;;;9.77;3.80;;;12.90;99.90;;;;;;4903263;29;20354;-82
2023/10/25 11:24:35;;;;;;;9.68;3.75;;;12.90;99.90;;;;;;4887569;29;20262;-81
2023/10/25 11:27:02;;;;;;;8.27;3.78;;;12.90;99.90;;;;;;4890537;29;20036;-81
2023/10/25 11:29:31;;;;;;;8.63;3.88;;;12.90;99.90;;;;;;4880088;29;20333;-82
2023/10/25 11:32:00;;;;;;;8.32;3.58;;;12.90;99.90;;;;;;4903055;29;20067;-82
2023/10/25 11:34:32;;;;;;;9.45;3.67;;;12.90;99.90;;;;;;4870747;29;20033;-81
2023/10/25 11:37:00;;;;;;;8.27;3.30;;;12.80;99.90;;;;;;4900685;29;20053;-81
2023/10/25 11:39:30;;;;;;;8.85;3.70;;;12.80;99.90;;;;;;4868241;29;20053;-81
2023/10/25 11:41:58;;;;;;;9.02;3.38;;;12.80;99.90;;;;;;4889277;29;20044;-82
2023/10/25 11:44:25;;;;;;;9.60;3.70;;;12.70;99.90;;;;;;4871550;29;20044;-80
2023/10/25 11:46:55;;;;;;;10.52;3.92;;;12.70;99.90;;;;;;4902724;29;20045;-82
2023/10/25 11:49:21;;;;;;;8.30;3.83;;;12.70;99.90;;;;;;4888663;29;20143;-81
2023/10/25 11:51:50;;;;;;;9.02;3.45;;;12.60;99.90;;;;;;4857494;29;20281;-81
2023/10/25 11:54:15;;;;;;;8.68;3.80;;;12.70;99.90;;;;;;4873472;29;20031;-81
2023/10/25 11:56:41;;;;;;;8.65;3.63;;;12.70;99.90;;;;;;4872918;29;20687;-81
2023/10/25 11:59:07;;;;;;;8.93;3.53;;;12.70;99.90;;;;;;4872694;29;20048;-81
2023/10/25 12:01:32;;;;;;;8.20;3.25;;;12.70;99.90;;;;;;4882205;29;20067;-81
2023/10/25 12:03:58;;;;;;;7.57;3.10;;;12.70;99.90;;;;;;4858701;29;20028;-81
2023/10/25 12:06:24;;;;;;;8.10;3.45;;;12.60;99.90;;;;;;4887393;29;20331;-81
2023/10/25 12:08:50;;;;;;;11.05;3.47;;;12.60;99.90;;;;;;4886397;29;20047;-81
2023/10/25 12:11:16;;;;;;;8.80;3.55;;;12.60;99.90;;;;;;4879820;29;20029;-81
2023/10/25 12:13:42;;;;;;;8.50;3.60;;;12.60;99.90;;;;;;4904206;29;20056;-81
2023/10/25 12:16:09;;;;;;;7.68;3.13;;;12.50;99.90;;;;;;4869649;29;21565;-81
2023/10/25 12:18:36;;;;;;;9.60;3.17;;;12.50;99.90;;;;;;4872977;29;20033;-81
2023/10/25 12:21:03;;;;;;;7.75;3.13;;;12.50;99.90;;;;;;4871416;29;20107;-81
2023/10/25 12:23:30;;;;;;;7.35;2.85;;;12.50;99.90;;;;;;4902799;29;20155;-81
2023/10/25 12:25:56;;;;;;;7.40;3.15;;;12.50;99.90;;;;;;4887328;29;20060;-81
2023/10/25 12:28:22;;;;;;;8.93;3.10;;;12.50;99.90;;;;;;4886443;29;20057;-81
2023/10/25 12:30:49;;;;;;;8.07;2.90;;;12.50;99.90;;;;;;4869066;29;20052;-81
2023/10/25 12:33:14;;;;;;;7.30;2.92;;;12.50;99.90;;;;;;4904599;29;20032;-81
2023/10/25 12:35:42;;;;;;;8.32;2.80;;;12.40;99.90;;;;;;4870164;29;20056;-81
2023/10/25 12:38:08;;;;;;;7.38;2.80;;;12.40;99.90;;;;;;4902615;29;20036;-82
2023/10/25 12:40:33;;;;;;;6.38;2.53;;;12.40;99.90;;;;;;4871988;29;20049;-81
2023/10/25 12:42:59;;;;;;;7.75;2.67;;;12.30;99.90;;;;;;4887693;29;20245;-81
2023/10/25 12:45:25;;;;;;;6.78;2.55;;;12.40;99.90;;;;;;4865838;29;20056;-81
2023/10/25 12:47:51;;;;;;;7.00;2.50;;;12.30;99.90;;;;;;4853195;29;20088;-81
2023/10/25 12:50:17;;;;;;;8.77;2.90;;;12.30;99.90;;;;;;4869341;29;20025;-80
2023/10/25 12:52:43;;;;;;;8.82;2.97;;;12.30;99.90;;;;;;4876603;29;20318;-81